sensor_id;sensor_type;location;lat;lon;timestamp;P1;P2;P0
78316;PMS7003;67572;50.930;18.276;2023-11-19T00:00:31;10.67;9.00;9.00
78316;PMS7003;67572;50.930;18.276;2023-11-19T00:03:34;12.33;12.33;12.33
78316;PMS7003;67572;50.930;18.276;2023-11-19T00:06:38;10.00;6.00;6.00
78316;PMS7003;67572;50.930;18.276;2023-11-19T00:09:43;18.67;13.67;10.67
78316;PMS7003;67572;50.930;18.276;2023-11-19T00:12:47;16.00;13.67;12.00
78316;PMS7003;67572;50.930;18.276;2023-11-19T00:15:51;14.67;13.67;13.00
78316;PMS7003;67572;50.930;18.276;2023-11-19T00:18:55;18.00;12.00;9.67
78316;PMS7003;67572;50.930;18.276;2023-11-19T00:21:58;11.33;9.00;9.00
78316;PMS7003;67572;50.930;18.276;2023-11-19T00:25:07;14.00;8.67;6.00
78316;PMS7003;67572;50.930;18.276;2023-11-19T00:28:11;13.67;13.67;12.33
78316;PMS7003;67572;50.930;18.276;2023-11-19T00:31:14;17.33;12.00;11.33
78316;PMS7003;67572;50.930;18.276;2023-11-19T00:34:18;6.67;6.67;6.33
78316;PMS7003;67572;50.930;18.276;2023-11-19T00:37:24;7.67;6.67;4.67
78316;PMS7003;67572;50.930;18.276;2023-11-19T00:40:29;19.00;16.67;13.67
78316;PMS7003;67572;50.930;18.276;2023-11-19T00:43:32;15.67;11.33;9.67
78316;PMS7003;67572;50.930;18.276;2023-11-19T00:46:39;23.33;19.33;15.00
78316;PMS7003;67572;50.930;18.276;2023-11-19T00:49:45;3.33;3.00;1.00
78316;PMS7003;67572;50.930;18.276;2023-11-19T00:52:50;14.33;9.00;7.67
78316;PMS7003;67572;50.930;18.276;2023-11-19T00:55:55;13.67;13.00;12.00
78316;PMS7003;67572;50.930;18.276;2023-11-19T00:58:58;8.00;7.00;6.33
78316;PMS7003;67572;50.930;18.276;2023-11-19T01:02:02;18.33;15.33;14.33
78316;PMS7003;67572;50.930;18.276;2023-11-19T01:05:08;14.67;12.67;11.33
78316;PMS7003;67572;50.930;18.276;2023-11-19T01:08:11;16.33;15.33;12.33
78316;PMS7003;67572;50.930;18.276;2023-11-19T01:11:21;9.33;7.67;7.67
78316;PMS7003;67572;50.930;18.276;2023-11-19T01:14:24;15.00;10.67;10.00
78316;PMS7003;67572;50.930;18.276;2023-11-19T01:17:28;13.67;11.33;9.67
78316;PMS7003;67572;50.930;18.276;2023-11-19T01:20:33;14.33;14.33;12.00
78316;PMS7003;67572;50.930;18.276;2023-11-19T01:23:37;14.67;12.33;10.67
78316;PMS7003;67572;50.930;18.276;2023-11-19T01:26:42;13.33;12.00;11.00
78316;PMS7003;67572;50.930;18.276;2023-11-19T01:29:47;17.33;10.00;10.00
78316;PMS7003;67572;50.930;18.276;2023-11-19T01:32:50;17.33;8.33;7.67
78316;PMS7003;67572;50.930;18.276;2023-11-19T01:35:54;7.00;6.00;6.00
78316;PMS7003;67572;50.930;18.276;2023-11-19T01:39:00;19.00;9.00;6.67
78316;PMS7003;67572;50.930;18.276;2023-11-19T01:42:07;11.33;9.33;9.00
78316;PMS7003;67572;50.930;18.276;2023-11-19T01:45:10;9.00;6.00;6.00
78316;PMS7003;67572;50.930;18.276;2023-11-19T01:48:26;12.33;7.67;7.67
78316;PMS7003;67572;50.930;18.276;2023-11-19T01:51:30;0.33;0.33;0.33
78316;PMS7003;67572;50.930;18.276;2023-11-19T01:54:34;7.67;6.33;6.00
78316;PMS7003;67572;50.930;18.276;2023-11-19T01:57:39;8.67;8.33;7.67
78316;PMS7003;67572;50.930;18.276;2023-11-19T02:00:44;9.00;6.67;6.00
78316;PMS7003;67572;50.930;18.276;2023-11-19T02:03:48;12.00;10.00;9.00
78316;PMS7003;67572;50.930;18.276;2023-11-19T02:06:52;14.67;11.33;9.00
78316;PMS7003;67572;50.930;18.276;2023-11-19T02:09:59;7.00;6.67;6.67
78316;PMS7003;67572;50.930;18.276;2023-11-19T02:13:06;11.33;11.33;10.33
78316;PMS7003;67572;50.930;18.276;2023-11-19T02:16:12;17.33;13.33;10.67
78316;PMS7003;67572;50.930;18.276;2023-11-19T02:19:18;15.67;8.33;8.33
78316;PMS7003;67572;50.930;18.276;2023-11-19T02:22:22;14.33;14.33;11.67
78316;PMS7003;67572;50.930;18.276;2023-11-19T02:25:28;11.33;9.67;9.00
78316;PMS7003;67572;50.930;18.276;2023-11-19T02:28:36;10.00;9.00;8.33
78316;PMS7003;67572;50.930;18.276;2023-11-19T02:31:40;15.67;13.33;11.67
78316;PMS7003;67572;50.930;18.276;2023-11-19T02:34:45;17.00;6.67;4.00
78316;PMS7003;67572;50.930;18.276;2023-11-19T02:37:48;10.67;9.33;8.33
78316;PMS7003;67572;50.930;18.276;2023-11-19T02:40:52;15.67;14.00;11.67
78316;PMS7003;67572;50.930;18.276;2023-11-19T02:43:57;9.00;9.00;7.00
78316;PMS7003;67572;50.930;18.276;2023-11-19T02:47:00;9.33;6.00;4.00
78316;PMS7003;67572;50.930;18.276;2023-11-19T02:50:05;12.00;9.67;9.33
78316;PMS7003;67572;50.930;18.276;2023-11-19T02:53:16;13.00;10.00;10.00
78316;PMS7003;67572;50.930;18.276;2023-11-19T02:56:19;15.67;13.00;10.00
78316;PMS7003;67572;50.930;18.276;2023-11-19T02:59:29;11.33;9.67;6.33
78316;PMS7003;67572;50.930;18.276;2023-11-19T03:02:41;12.33;8.33;7.67
78316;PMS7003;67572;50.930;18.276;2023-11-19T03:05:48;9.33;9.33;6.33
78316;PMS7003;67572;50.930;18.276;2023-11-19T03:08:51;19.00;17.00;12.00
78316;PMS7003;67572;50.930;18.276;2023-11-19T03:11:55;10.00;3.00;3.00
78316;PMS7003;67572;50.930;18.276;2023-11-19T03:15:00;15.00;12.33;6.67
78316;PMS7003;67572;50.930;18.276;2023-11-19T03:18:04;14.33;14.33;12.33
78316;PMS7003;67572;50.930;18.276;2023-11-19T03:21:08;9.33;7.67;7.67
78316;PMS7003;67572;50.930;18.276;2023-11-19T03:24:14;19.00;16.67;11.33
78316;PMS7003;67572;50.930;18.276;2023-11-19T03:27:19;12.00;9.33;7.00
78316;PMS7003;67572;50.930;18.276;2023-11-19T03:30:24;18.67;15.00;12.00
78316;PMS7003;67572;50.930;18.276;2023-11-19T03:33:35;13.33;12.33;12.00
78316;PMS7003;67572;50.930;18.276;2023-11-19T03:36:39;12.00;10.00;9.00
78316;PMS7003;67572;50.930;18.276;2023-11-19T03:39:44;14.33;11.33;9.67
78316;PMS7003;67572;50.930;18.276;2023-11-19T03:42:48;16.00;12.67;12.00
78316;PMS7003;67572;50.930;18.276;2023-11-19T03:45:53;26.33;20.33;16.00
78316;PMS7003;67572;50.930;18.276;2023-11-19T03:48:56;12.33;12.00;10.00
78316;PMS7003;67572;50.930;18.276;2023-11-19T03:52:01;18.33;15.00;12.33
78316;PMS7003;67572;50.930;18.276;2023-11-19T03:55:05;16.33;12.33;9.67
78316;PMS7003;67572;50.930;18.276;2023-11-19T03:58:10;16.67;14.33;12.33
78316;PMS7003;67572;50.930;18.276;2023-11-19T04:01:15;17.33;15.67;14.33
78316;PMS7003;67572;50.930;18.276;2023-11-19T04:04:19;16.67;12.00;9.67
78316;PMS7003;67572;50.930;18.276;2023-11-19T04:07:23;9.00;7.00;6.00
78316;PMS7003;67572;50.930;18.276;2023-11-19T04:10:27;17.00;12.00;10.00
78316;PMS7003;67572;50.930;18.276;2023-11-19T04:13:31;10.67;9.00;7.00
78316;PMS7003;67572;50.930;18.276;2023-11-19T04:16:36;21.67;19.00;15.33
78316;PMS7003;67572;50.930;18.276;2023-11-19T04:19:40;5.67;1.00;1.00
78316;PMS7003;67572;50.930;18.276;2023-11-19T04:22:45;12.67;8.33;7.67
78316;PMS7003;67572;50.930;18.276;2023-11-19T04:25:48;13.00;8.67;8.33
78316;PMS7003;67572;50.930;18.276;2023-11-19T04:28:52;14.33;11.33;10.33
78316;PMS7003;67572;50.930;18.276;2023-11-19T04:31:56;12.33;12.33;9.67
78316;PMS7003;67572;50.930;18.276;2023-11-19T04:35:00;18.00;12.33;10.67
78316;PMS7003;67572;50.930;18.276;2023-11-19T04:38:04;16.67;16.67;12.67
78316;PMS7003;67572;50.930;18.276;2023-11-19T04:41:07;22.00;15.33;10.00
78316;PMS7003;67572;50.930;18.276;2023-11-19T04:44:11;14.33;11.67;11.33
78316;PMS7003;67572;50.930;18.276;2023-11-19T04:47:16;17.67;15.67;14.33
78316;PMS7003;67572;50.930;18.276;2023-11-19T04:50:19;16.33;13.33;9.00
78316;PMS7003;67572;50.930;18.276;2023-11-19T04:53:25;15.33;13.67;12.67
78316;PMS7003;67572;50.930;18.276;2023-11-19T04:56:29;20.33;16.00;13.00
78316;PMS7003;67572;50.930;18.276;2023-11-19T04:59:34;12.67;11.33;9.33
78316;PMS7003;67572;50.930;18.276;2023-11-19T05:02:38;16.67;11.67;9.67
78316;PMS7003;67572;50.930;18.276;2023-11-19T05:05:42;21.33;17.00;13.67
78316;PMS7003;67572;50.930;18.276;2023-11-19T05:08:46;18.67;16.00;15.33
78316;PMS7003;67572;50.930;18.276;2023-11-19T05:11:49;17.33;12.00;11.33
78316;PMS7003;67572;50.930;18.276;2023-11-19T05:14:53;18.00;15.00;13.00
78316;PMS7003;67572;50.930;18.276;2023-11-19T05:17:58;5.00;1.00;1.00
78316;PMS7003;67572;50.930;18.276;2023-11-19T05:21:01;19.33;12.00;10.00
78316;PMS7003;67572;50.930;18.276;2023-11-19T05:24:05;13.00;12.33;9.67
78316;PMS7003;67572;50.930;18.276;2023-11-19T05:27:08;32.33;16.00;13.00
78316;PMS7003;67572;50.930;18.276;2023-11-19T05:30:13;13.67;12.33;12.00
78316;PMS7003;67572;50.930;18.276;2023-11-19T05:33:18;16.00;14.67;9.67
78316;PMS7003;67572;50.930;18.276;2023-11-19T05:36:22;23.67;15.67;13.67
78316;PMS7003;67572;50.930;18.276;2023-11-19T05:39:25;18.00;17.00;14.00
78316;PMS7003;67572;50.930;18.276;2023-11-19T05:42:29;13.00;13.00;12.00
78316;PMS7003;67572;50.930;18.276;2023-11-19T05:45:32;16.00;12.00;9.67
78316;PMS7003;67572;50.930;18.276;2023-11-19T05:48:37;18.00;14.67;12.67
78316;PMS7003;67572;50.930;18.276;2023-11-19T05:51:40;20.33;18.33;15.00
78316;PMS7003;67572;50.930;18.276;2023-11-19T05:54:44;16.00;13.00;11.33
78316;PMS7003;67572;50.930;18.276;2023-11-19T05:57:49;15.67;13.00;11.33
78316;PMS7003;67572;50.930;18.276;2023-11-19T06:00:53;16.33;10.67;9.67
78316;PMS7003;67572;50.930;18.276;2023-11-19T06:03:58;21.33;19.67;13.67
78316;PMS7003;67572;50.930;18.276;2023-11-19T06:07:03;14.00;4.33;3.33
78316;PMS7003;67572;50.930;18.276;2023-11-19T06:10:07;19.33;17.67;15.33
78316;PMS7003;67572;50.930;18.276;2023-11-19T06:13:12;21.33;15.67;13.00
78316;PMS7003;67572;50.930;18.276;2023-11-19T06:16:16;12.67;12.67;12.67
78316;PMS7003;67572;50.930;18.276;2023-11-19T06:19:22;18.33;15.33;12.67
78316;PMS7003;67572;50.930;18.276;2023-11-19T06:22:30;13.67;13.00;11.00
78316;PMS7003;67572;50.930;18.276;2023-11-19T06:25:34;13.00;12.33;11.33
78316;PMS7003;67572;50.930;18.276;2023-11-19T06:28:37;10.33;6.00;3.67
78316;PMS7003;67572;50.930;18.276;2023-11-19T06:31:41;12.33;10.67;9.33
78316;PMS7003;67572;50.930;18.276;2023-11-19T06:34:46;24.33;17.00;13.00
78316;PMS7003;67572;50.930;18.276;2023-11-19T06:37:50;17.00;15.33;13.67
78316;PMS7003;67572;50.930;18.276;2023-11-19T06:40:53;19.33;16.33;14.67
78316;PMS7003;67572;50.930;18.276;2023-11-19T06:43:57;17.33;13.00;11.33
78316;PMS7003;67572;50.930;18.276;2023-11-19T06:47:01;22.67;20.67;16.67
78316;PMS7003;67572;50.930;18.276;2023-11-19T06:50:07;15.00;12.67;11.33
78316;PMS7003;67572;50.930;18.276;2023-11-19T06:53:11;19.33;19.33;16.33
78316;PMS7003;67572;50.930;18.276;2023-11-19T06:56:18;18.00;10.67;9.33
78316;PMS7003;67572;50.930;18.276;2023-11-19T06:59:23;19.33;16.33;14.33
78316;PMS7003;67572;50.930;18.276;2023-11-19T07:02:26;15.00;13.00;7.67
78316;PMS7003;67572;50.930;18.276;2023-11-19T07:05:31;14.33;14.33;12.67
78316;PMS7003;67572;50.930;18.276;2023-11-19T07:08:36;18.33;16.00;13.00
78316;PMS7003;67572;50.930;18.276;2023-11-19T07:11:40;19.33;10.67;9.33
78316;PMS7003;67572;50.930;18.276;2023-11-19T07:14:45;16.67;11.33;9.67
78316;PMS7003;67572;50.930;18.276;2023-11-19T07:17:49;8.67;8.67;6.00
78316;PMS7003;67572;50.930;18.276;2023-11-19T07:21:05;13.33;7.33;5.67
78316;PMS7003;67572;50.930;18.276;2023-11-19T07:24:12;10.33;9.67;8.33
78316;PMS7003;67572;50.930;18.276;2023-11-19T07:27:15;15.67;10.00;10.00
78316;PMS7003;67572;50.930;18.276;2023-11-19T07:30:19;13.67;10.67;9.33
78316;PMS7003;67572;50.930;18.276;2023-11-19T07:33:23;14.33;13.67;10.67
78316;PMS7003;67572;50.930;18.276;2023-11-19T07:36:29;13.00;12.00;10.00
78316;PMS7003;67572;50.930;18.276;2023-11-19T07:39:32;13.00;13.00;12.33
78316;PMS7003;67572;50.930;18.276;2023-11-19T07:42:37;15.00;9.33;9.00
78316;PMS7003;67572;50.930;18.276;2023-11-19T07:45:40;13.67;12.33;10.00
78316;PMS7003;67572;50.930;18.276;2023-11-19T07:48:45;0.00;0.00;0.00
78316;PMS7003;67572;50.930;18.276;2023-11-19T07:51:50;19.00;13.67;10.00
78316;PMS7003;67572;50.930;18.276;2023-11-19T07:54:54;15.00;13.00;12.00
78316;PMS7003;67572;50.930;18.276;2023-11-19T07:57:58;13.67;13.67;12.67
78316;PMS7003;67572;50.930;18.276;2023-11-19T08:01:01;16.00;16.00;15.00
78316;PMS7003;67572;50.930;18.276;2023-11-19T08:04:05;9.00;6.33;4.00
78316;PMS7003;67572;50.930;18.276;2023-11-19T08:07:10;7.00;7.00;6.00
78316;PMS7003;67572;50.930;18.276;2023-11-19T08:10:14;19.00;13.00;10.67
78316;PMS7003;67572;50.930;18.276;2023-11-19T08:13:18;16.67;16.67;16.00
78316;PMS7003;67572;50.930;18.276;2023-11-19T08:16:22;12.33;11.33;9.67
78316;PMS7003;67572;50.930;18.276;2023-11-19T08:19:26;12.67;12.67;12.33
78316;PMS7003;67572;50.930;18.276;2023-11-19T08:22:34;17.33;16.00;12.33
78316;PMS7003;67572;50.930;18.276;2023-11-19T08:25:37;4.67;4.67;4.00
78316;PMS7003;67572;50.930;18.276;2023-11-19T08:28:41;12.67;9.00;9.00
78316;PMS7003;67572;50.930;18.276;2023-11-19T08:31:45;6.67;6.67;6.33
78316;PMS7003;67572;50.930;18.276;2023-11-19T08:34:48;19.33;12.67;9.67
78316;PMS7003;67572;50.930;18.276;2023-11-19T08:37:53;24.33;16.67;14.33
78316;PMS7003;67572;50.930;18.276;2023-11-19T08:40:56;15.67;15.67;14.33
78316;PMS7003;67572;50.930;18.276;2023-11-19T08:44:02;14.33;14.33;11.33
78316;PMS7003;67572;50.930;18.276;2023-11-19T08:47:07;18.00;12.67;12.00
78316;PMS7003;67572;50.930;18.276;2023-11-19T08:50:13;15.33;10.33;8.33
78316;PMS7003;67572;50.930;18.276;2023-11-19T08:53:18;12.67;12.67;10.67
78316;PMS7003;67572;50.930;18.276;2023-11-19T08:56:26;16.00;15.33;11.33
78316;PMS7003;67572;50.930;18.276;2023-11-19T08:59:33;16.00;12.00;9.67
78316;PMS7003;67572;50.930;18.276;2023-11-19T09:02:37;10.67;9.00;7.67
78316;PMS7003;67572;50.930;18.276;2023-11-19T09:05:40;10.00;10.00;10.00
78316;PMS7003;67572;50.930;18.276;2023-11-19T09:08:45;16.00;16.00;15.00
78316;PMS7003;67572;50.930;18.276;2023-11-19T09:11:49;7.00;4.00;2.33
78316;PMS7003;67572;50.930;18.276;2023-11-19T09:14:52;9.33;7.00;7.00
78316;PMS7003;67572;50.930;18.276;2023-11-19T09:17:56;6.75;6.75;6.75
78316;PMS7003;67572;50.930;18.276;2023-11-19T09:20:59;10.67;9.00;8.33
78316;PMS7003;67572;50.930;18.276;2023-11-19T09:24:06;7.50;4.00;3.25
78316;PMS7003;67572;50.930;18.276;2023-11-19T09:27:10;13.50;12.75;9.75
78316;PMS7003;67572;50.930;18.276;2023-11-19T09:30:13;12.50;10.00;8.50
78316;PMS7003;67572;50.930;18.276;2023-11-19T09:33:18;9.75;7.50;6.50
78316;PMS7003;67572;50.930;18.276;2023-11-19T09:36:22;14.33;13.00;12.00
78316;PMS7003;67572;50.930;18.276;2023-11-19T09:39:27;9.00;7.00;6.00
78316;PMS7003;67572;50.930;18.276;2023-11-19T09:42:30;13.50;10.50;9.50
78316;PMS7003;67572;50.930;18.276;2023-11-19T09:45:47;14.33;12.00;12.00
78316;PMS7003;67572;50.930;18.276;2023-11-19T09:48:52;6.25;6.25;6.00
78316;PMS7003;67572;50.930;18.276;2023-11-19T09:51:57;15.00;10.00;9.00
78316;PMS7003;67572;50.930;18.276;2023-11-19T09:55:02;15.33;10.00;9.00
78316;PMS7003;67572;50.930;18.276;2023-11-19T09:58:05;9.00;9.00;7.00
78316;PMS7003;67572;50.930;18.276;2023-11-19T10:01:09;9.67;8.67;7.67
78316;PMS7003;67572;50.930;18.276;2023-11-19T10:04:17;15.67;14.33;11.33
78316;PMS7003;67572;50.930;18.276;2023-11-19T10:07:22;12.33;11.33;10.33
78316;PMS7003;67572;50.930;18.276;2023-11-19T10:10:29;12.67;12.33;11.33
78316;PMS7003;67572;50.930;18.276;2023-11-19T10:13:33;15.00;10.00;9.33
78316;PMS7003;67572;50.930;18.276;2023-11-19T10:16:40;14.33;11.33;10.67
78316;PMS7003;67572;50.930;18.276;2023-11-19T10:19:44;9.67;7.67;7.33
78316;PMS7003;67572;50.930;18.276;2023-11-19T10:22:48;13.33;9.33;9.00
78316;PMS7003;67572;50.930;18.276;2023-11-19T10:25:54;13.00;10.00;7.67
78316;PMS7003;67572;50.930;18.276;2023-11-19T10:29:07;10.00;9.00;8.33
78316;PMS7003;67572;50.930;18.276;2023-11-19T10:32:12;14.33;12.33;10.67
78316;PMS7003;67572;50.930;18.276;2023-11-19T10:35:28;6.00;4.67;4.00
78316;PMS7003;67572;50.930;18.276;2023-11-19T10:38:31;8.67;7.33;6.33
78316;PMS7003;67572;50.930;18.276;2023-11-19T10:41:36;20.00;11.33;10.33
78316;PMS7003;67572;50.930;18.276;2023-11-19T10:44:40;68.33;58.67;48.33
78316;PMS7003;67572;50.930;18.276;2023-11-19T10:47:46;1.00;1.00;1.00
78316;PMS7003;67572;50.930;18.276;2023-11-19T10:50:53;6.00;3.75;3.75
78316;PMS7003;67572;50.930;18.276;2023-11-19T10:53:57;69.50;58.25;46.00
78316;PMS7003;67572;50.930;18.276;2023-11-19T10:57:08;16.00;16.00;15.33
78316;PMS7003;67572;50.930;18.276;2023-11-19T11:00:15;13.00;9.00;7.00
78316;PMS7003;67572;50.930;18.276;2023-11-19T11:03:24;8.00;7.50;6.00
78316;PMS7003;67572;50.930;18.276;2023-11-19T11:06:29;12.50;6.00;4.00
78316;PMS7003;67572;50.930;18.276;2023-11-19T11:09:33;9.25;7.00;6.00
78316;PMS7003;67572;50.930;18.276;2023-11-19T11:12:38;10.67;9.33;8.33
78316;PMS7003;67572;50.930;18.276;2023-11-19T11:15:45;13.00;9.00;8.33
78316;PMS7003;67572;50.930;18.276;2023-11-19T11:18:49;67.67;58.00;48.00
78316;PMS7003;67572;50.930;18.276;2023-11-19T11:21:54;12.67;11.33;9.33
78316;PMS7003;67572;50.930;18.276;2023-11-19T11:25:07;61.25;49.00;42.00
78316;PMS7003;67572;50.930;18.276;2023-11-19T11:28:26;13.00;10.67;9.33
78316;PMS7003;67572;50.930;18.276;2023-11-19T11:31:39;3.00;1.00;0.75
78316;PMS7003;67572;50.930;18.276;2023-11-19T11:38:22;9.50;7.00;6.75
78316;PMS7003;67572;50.930;18.276;2023-11-19T11:41:26;58.00;51.00;42.67
78316;PMS7003;67572;50.930;18.276;2023-11-19T11:48:13;68.33;59.33;49.00
78316;PMS7003;67572;50.930;18.276;2023-11-19T11:51:18;63.67;54.00;46.00
78316;PMS7003;67572;50.930;18.276;2023-11-19T11:55:04;61.50;54.25;42.00
78316;PMS7003;67572;50.930;18.276;2023-11-19T11:58:10;61.00;54.00;21.75
78316;PMS7003;67572;50.930;18.276;2023-11-19T12:01:14;71.00;59.50;31.75
78316;PMS7003;67572;50.930;18.276;2023-11-19T12:04:23;69.50;60.25;11.25
78316;PMS7003;67572;50.930;18.276;2023-11-19T12:07:29;65.50;57.00;31.50
78316;PMS7003;67572;50.930;18.276;2023-11-19T12:10:43;67.50;57.50;31.25
78316;PMS7003;67572;50.930;18.276;2023-11-19T12:13:53;70.00;60.25;19.50
78316;PMS7003;67572;50.930;18.276;2023-11-19T12:17:03;69.00;58.00;36.00
78316;PMS7003;67572;50.930;18.276;2023-11-19T12:20:08;66.75;57.00;40.00
78316;PMS7003;67572;50.930;18.276;2023-11-19T12:23:13;67.50;57.25;45.00
78316;PMS7003;67572;50.930;18.276;2023-11-19T12:26:30;67.00;58.00;45.00
78316;PMS7003;67572;50.930;18.276;2023-11-19T12:29:41;70.00;60.00;42.00
78316;PMS7003;67572;50.930;18.276;2023-11-19T12:32:46;75.33;62.33;45.00
78316;PMS7003;67572;50.930;18.276;2023-11-19T12:35:53;72.00;61.00;44.67
78316;PMS7003;67572;50.930;18.276;2023-11-19T12:39:02;72.75;61.00;17.25
78316;PMS7003;67572;50.930;18.276;2023-11-19T12:42:06;73.00;63.00;30.00
78316;PMS7003;67572;50.930;18.276;2023-11-19T12:45:11;77.50;64.00;36.75
78316;PMS7003;67572;50.930;18.276;2023-11-19T12:48:16;75.00;63.00;47.33
78316;PMS7003;67572;50.930;18.276;2023-11-19T12:51:22;74.33;63.00;32.67
78316;PMS7003;67572;50.930;18.276;2023-11-19T12:54:32;73.67;63.00;48.00
78316;PMS7003;67572;50.930;18.276;2023-11-19T12:57:37;72.33;61.00;45.00
78316;PMS7003;67572;50.930;18.276;2023-11-19T13:00:42;74.75;63.50;0.00
78316;PMS7003;67572;50.930;18.276;2023-11-19T13:03:46;71.00;61.33;25.67
78316;PMS7003;67572;50.930;18.276;2023-11-19T13:06:53;74.50;63.00;38.00
78316;PMS7003;67572;50.930;18.276;2023-11-19T13:10:03;78.00;65.50;22.50
78316;PMS7003;67572;50.930;18.276;2023-11-19T13:13:09;78.75;65.00;20.00
78316;PMS7003;67572;50.930;18.276;2023-11-19T13:16:14;72.00;61.00;14.50
78316;PMS7003;67572;50.930;18.276;2023-11-19T13:19:23;75.50;64.25;17.75
78316;PMS7003;67572;50.930;18.276;2023-11-19T13:22:29;67.50;57.25;8.75
78316;PMS7003;67572;50.930;18.276;2023-11-19T13:25:32;75.33;64.67;4.00
78316;PMS7003;67572;50.930;18.276;2023-11-19T13:28:36;72.00;61.25;22.25
78316;PMS7003;67572;50.930;18.276;2023-11-19T13:31:39;76.67;66.00;18.33
78316;PMS7003;67572;50.930;18.276;2023-11-19T13:34:43;76.00;66.00;1.67
78316;PMS7003;67572;50.930;18.276;2023-11-19T13:37:49;77.33;64.67;4.00
78316;PMS7003;67572;50.930;18.276;2023-11-19T13:40:53;78.75;66.00;5.50
78316;PMS7003;67572;50.930;18.276;2023-11-19T13:43:57;79.00;66.00;7.67
78316;PMS7003;67572;50.930;18.276;2023-11-19T13:47:00;75.00;63.00;15.25
78316;PMS7003;67572;50.930;18.276;2023-11-19T13:50:05;75.00;63.25;2.50
78316;PMS7003;67572;50.930;18.276;2023-11-19T13:53:10;74.33;61.67;12.00
78316;PMS7003;67572;50.930;18.276;2023-11-19T13:56:13;75.00;63.33;33.00
78316;PMS7003;67572;50.930;18.276;2023-11-19T13:59:17;75.67;64.00;45.67
78316;PMS7003;67572;50.930;18.276;2023-11-19T14:02:21;75.00;63.67;41.33
78316;PMS7003;67572;50.930;18.276;2023-11-19T14:05:24;58.33;52.00;24.67
78316;PMS7003;67572;50.930;18.276;2023-11-19T14:08:32;75.00;64.00;18.33
78316;PMS7003;67572;50.930;18.276;2023-11-19T14:11:36;82.67;69.33;9.00
78316;PMS7003;67572;50.930;18.276;2023-11-19T14:14:39;79.00;67.00;4.00
78316;PMS7003;67572;50.930;18.276;2023-11-19T14:17:46;73.67;63.33;28.33
78316;PMS7003;67572;50.930;18.276;2023-11-19T14:20:50;75.00;63.67;1.00
78316;PMS7003;67572;50.930;18.276;2023-11-19T14:23:54;82.00;67.00;36.00
78316;PMS7003;67572;50.930;18.276;2023-11-19T14:26:59;81.33;69.00;18.67
78316;PMS7003;67572;50.930;18.276;2023-11-19T14:30:03;78.00;66.00;3.67
78316;PMS7003;67572;50.930;18.276;2023-11-19T14:33:08;78.00;66.00;41.33
78316;PMS7003;67572;50.930;18.276;2023-11-19T14:36:11;78.00;66.00;46.00
78316;PMS7003;67572;50.930;18.276;2023-11-19T14:39:16;73.00;63.00;45.00
78316;PMS7003;67572;50.930;18.276;2023-11-19T14:42:20;77.33;65.33;48.00
78316;PMS7003;67572;50.930;18.276;2023-11-19T14:45:24;78.00;66.00;55.00
78316;PMS7003;67572;50.930;18.276;2023-11-19T14:48:31;75.00;64.00;14.33
78316;PMS7003;67572;50.930;18.276;2023-11-19T14:51:35;79.00;67.00;33.00
78316;PMS7003;67572;50.930;18.276;2023-11-19T14:54:41;78.00;66.00;49.00
78316;PMS7003;67572;50.930;18.276;2023-11-19T14:57:46;81.33;67.67;19.00
78316;PMS7003;67572;50.930;18.276;2023-11-19T15:01:06;81.67;69.00;16.67
78316;PMS7003;67572;50.930;18.276;2023-11-19T15:04:14;73.00;63.00;34.00
78316;PMS7003;67572;50.930;18.276;2023-11-19T15:07:18;77.67;66.33;16.67
78316;PMS7003;67572;50.930;18.276;2023-11-19T15:10:27;75.33;64.00;36.67
78316;PMS7003;67572;50.930;18.276;2023-11-19T15:13:30;84.33;69.00;21.67
78316;PMS7003;67572;50.930;18.276;2023-11-19T15:16:35;79.00;67.00;31.00
78316;PMS7003;67572;50.930;18.276;2023-11-19T15:19:38;77.33;66.00;32.00
78316;PMS7003;67572;50.930;18.276;2023-11-19T15:22:42;79.00;67.00;19.00
78316;PMS7003;67572;50.930;18.276;2023-11-19T15:25:48;82.00;69.00;13.00
78316;PMS7003;67572;50.930;18.276;2023-11-19T15:28:51;79.00;67.00;38.00
78316;PMS7003;67572;50.930;18.276;2023-11-19T15:31:57;83.33;69.00;12.67
78316;PMS7003;67572;50.930;18.276;2023-11-19T15:35:01;82.67;69.00;6.33
78316;PMS7003;67572;50.930;18.276;2023-11-19T15:38:06;75.50;65.00;25.25
78316;PMS7003;67572;50.930;18.276;2023-11-19T15:41:12;79.00;66.00;1.67
78316;PMS7003;67572;50.930;18.276;2023-11-19T15:44:16;79.00;66.67;3.00
78316;PMS7003;67572;50.930;18.276;2023-11-19T15:47:20;77.33;65.33;1.67
78316;PMS7003;67572;50.930;18.276;2023-11-19T15:50:25;71.50;61.00;7.50
78316;PMS7003;67572;50.930;18.276;2023-11-19T15:53:31;77.00;65.33;6.00
78316;PMS7003;67572;50.930;18.276;2023-11-19T15:56:36;77.67;66.33;6.67
78316;PMS7003;67572;50.930;18.276;2023-11-19T15:59:40;79.67;67.00;3.33
78316;PMS7003;67572;50.930;18.276;2023-11-19T16:02:44;78.00;66.00;55.00
78316;PMS7003;67572;50.930;18.276;2023-11-19T16:05:47;74.33;63.67;52.00
78316;PMS7003;67572;50.930;18.276;2023-11-19T16:09:07;79.00;66.00;55.00
78316;PMS7003;67572;50.930;18.276;2023-11-19T16:12:15;80.33;67.00;56.33
78316;PMS7003;67572;50.930;18.276;2023-11-19T16:15:18;82.67;67.67;56.67
78316;PMS7003;67572;50.930;18.276;2023-11-19T16:18:25;81.33;66.67;3.33
78316;PMS7003;67572;50.930;18.276;2023-11-19T16:21:29;67.00;58.00;49.00
78316;PMS7003;67572;50.930;18.276;2023-11-19T16:24:36;72.67;61.67;51.00
78316;PMS7003;67572;50.930;18.276;2023-11-19T16:27:41;67.00;57.00;46.67
78316;PMS7003;67572;50.930;18.276;2023-11-19T16:30:44;83.33;69.33;58.00
78316;PMS7003;67572;50.930;18.276;2023-11-19T16:33:48;82.00;69.00;58.00
78316;PMS7003;67572;50.930;18.276;2023-11-19T16:36:52;81.67;69.00;53.67
78316;PMS7003;67572;50.930;18.276;2023-11-19T16:39:55;93.25;75.25;45.75
78316;PMS7003;67572;50.930;18.276;2023-11-19T16:43:00;83.00;69.50;11.00
78316;PMS7003;67572;50.930;18.276;2023-11-19T16:46:04;6.00;4.00;4.00
78316;PMS7003;67572;50.930;18.276;2023-11-19T16:49:11;20.50;20.50;19.00
78316;PMS7003;67572;50.930;18.276;2023-11-19T16:52:16;57.00;49.00;42.00
78316;PMS7003;67572;50.930;18.276;2023-11-19T16:55:20;95.25;74.50;20.00
78316;PMS7003;67572;50.930;18.276;2023-11-19T16:58:25;91.00;73.00;7.00
78316;PMS7003;67572;50.930;18.276;2023-11-19T17:01:29;121.67;115.33;51.33
78316;PMS7003;67572;50.930;18.276;2023-11-19T17:04:33;128.00;113.75;57.00
78316;PMS7003;67572;50.930;18.276;2023-11-19T17:07:37;100.33;77.67;43.67
78316;PMS7003;67572;50.930;18.276;2023-11-19T17:10:43;79.00;66.00;21.33
78316;PMS7003;67572;50.930;18.276;2023-11-19T17:13:49;84.00;70.00;40.33
78316;PMS7003;67572;50.930;18.276;2023-11-19T17:16:52;85.00;70.00;3.00
78316;PMS7003;67572;50.930;18.276;2023-11-19T17:19:56;85.33;69.33;22.33
78316;PMS7003;67572;50.930;18.276;2023-11-19T17:23:03;85.67;71.33;4.67